EDAC/ADC METAR and TAF weather

Enter ICAO airport designator
Station Type Date Time Source
EDAC METAR 2020/06/28 11:20 UTC NOAA

EDAC 281120Z 19007KT 160V220 9999 FEW037 BKN057 21/19 Q1014


Station Type Date Time Source
EDAC Decoded METAR 2020/06/28 11:20 UTC NOAA

Altenburg Nobitz, Germany (EDAC) 50-58N 012-30E
Jun 28, 2020 - 07:20 AM EDT / 2020.06.28 1120 UTC
Wind: from the S (190 degrees) at 8 MPH (7 KT) (direction variable):0
Visibility: greater than 7 mile(s):0
Sky conditions: mostly cloudy
Temperature: 69 F (21 C)
Dew Point: 66 F (19 C)
Relative Humidity: 88%
Pressure (altimeter): 29.94 in. Hg (1014 hPa)
ob: EDAC 281120Z 19007KT 160V220 9999 FEW037 BKN057 21/19 Q1014
cycle: 11

Station Type Date Time Source
EDAC TAF UTC NOAA

Error!

Example: see airport list